createdAt,value
2022-08-03T00:02:19.575Z,58.19
2022-08-03T00:04:48.935Z,57.77
2022-08-03T00:07:18.492Z,59.00
2022-08-03T00:09:46.462Z,58.66
2022-08-03T00:12:14.813Z,57.56
2022-08-03T00:14:43.705Z,57.90
2022-08-03T00:17:12.031Z,58.31
2022-08-03T00:19:39.973Z,58.11
2022-08-03T00:22:09.396Z,57.24
2022-08-03T00:24:37.307Z,57.41
2022-08-03T00:27:05.520Z,58.04
2022-08-03T00:29:33.413Z,57.69
2022-08-03T00:32:21.477Z,57.73
2022-08-03T00:34:57.938Z,58.92
2022-08-03T00:37:41.466Z,59.08
2022-08-03T00:40:12.738Z,60.95
2022-08-03T00:42:53.574Z,60.75
2022-08-03T00:45:23.489Z,60.09
2022-08-03T00:47:52.029Z,59.58
2022-08-03T00:50:23.161Z,59.32
2022-08-03T00:52:54.685Z,59.03
2022-08-03T00:55:23.472Z,59.61
2022-08-03T00:57:52.134Z,59.21
2022-08-03T01:00:23.413Z,59.10
2022-08-03T01:02:52.500Z,59.48
2022-08-03T01:05:21.499Z,59.35
2022-08-03T01:08:09.269Z,59.39
2022-08-03T01:10:47.254Z,59.59
2022-08-03T01:14:03.589Z,59.76
2022-08-03T01:16:19.228Z,60.03
2022-08-03T01:18:53.609Z,60.05
2022-08-03T01:21:27.721Z,59.74
2022-08-03T01:24:06.452Z,59.76
2022-08-03T01:27:00.770Z,59.30
2022-08-03T01:29:53.097Z,59.40
2022-08-03T01:32:53.531Z,59.83
2022-08-03T01:35:17.585Z,60.12
2022-08-03T01:37:53.037Z,60.15
2022-08-03T01:40:23.354Z,60.27
2022-08-03T01:42:53.610Z,60.23
2022-08-03T01:45:27.693Z,61.49
2022-08-03T01:47:57.130Z,62.03
2022-08-03T01:50:28.421Z,62.75
2022-08-03T01:52:58.182Z,64.21
2022-08-03T01:55:28.558Z,64.02
2022-08-03T01:58:05.428Z,63.30
2022-08-03T02:00:37.923Z,64.10
2022-08-03T02:03:08.164Z,63.64
2022-08-03T02:05:36.967Z,62.57
2022-08-03T02:08:07.267Z,61.71
2022-08-03T02:10:37.394Z,60.75
2022-08-03T02:13:08.290Z,61.23
2022-08-03T02:15:39.335Z,61.50
2022-08-03T02:18:09.758Z,61.53
2022-08-03T02:20:39.567Z,61.72
2022-08-03T02:23:08.480Z,61.85
2022-08-03T02:25:42.937Z,62.06
2022-08-03T02:28:13.436Z,63.71
2022-08-03T02:30:46.591Z,64.50
2022-08-03T02:33:26.447Z,63.46
2022-08-03T02:35:56.576Z,63.12
2022-08-03T02:38:29.742Z,65.21
2022-08-03T02:40:59.893Z,66.13
2022-08-03T02:43:39.163Z,65.66
2022-08-03T02:46:23.869Z,64.42
2022-08-03T02:48:55.053Z,63.27
2022-08-03T02:51:24.907Z,63.18
2022-08-03T02:53:54.281Z,63.22
2022-08-03T02:56:25.898Z,63.43
2022-08-03T02:58:54.830Z,63.67
2022-08-03T03:01:27.226Z,64.12
2022-08-03T03:03:57.373Z,64.15
2022-08-03T03:06:29.298Z,65.27
2022-08-03T03:09:00.012Z,65.21
2022-08-03T03:11:28.350Z,65.93
2022-08-03T03:13:58.757Z,66.70
2022-08-03T03:16:30.920Z,67.03
2022-08-03T03:19:00.791Z,68.44
2022-08-03T03:21:30.705Z,68.04
2022-08-03T03:23:59.881Z,69.33
2022-08-03T03:26:28.798Z,69.67
2022-08-03T03:28:57.196Z,70.15
2022-08-03T03:31:25.514Z,70.52
2022-08-03T03:33:55.469Z,70.30
2022-08-03T03:36:23.598Z,70.92
2022-08-03T03:38:51.892Z,71.01
2022-08-03T03:41:21.984Z,71.20
2022-08-03T03:43:51.099Z,71.36
2022-08-03T03:46:19.563Z,71.01
2022-08-03T03:48:47.984Z,70.87
2022-08-03T03:51:17.781Z,70.61
2022-08-03T03:53:57.076Z,69.75
2022-08-03T03:56:26.055Z,68.65
2022-08-03T03:58:54.362Z,68.80
2022-08-03T04:01:23.170Z,68.89
2022-08-03T04:03:51.411Z,69.31
2022-08-03T04:06:38.652Z,69.46
2022-08-03T04:09:27.229Z,69.36
2022-08-03T04:12:02.932Z,68.87
2022-08-03T04:14:34.963Z,68.23
2022-08-03T04:17:05.960Z,67.82
2022-08-03T04:19:39.484Z,67.53
2022-08-03T04:22:12.519Z,67.67
2022-08-03T04:24:44.263Z,67.73
2022-08-03T04:27:15.034Z,67.70
2022-08-03T04:29:48.527Z,67.71
2022-08-03T04:32:18.128Z,68.02
2022-08-03T04:34:46.553Z,67.96
2022-08-03T04:37:25.787Z,68.31
2022-08-03T04:39:57.581Z,70.35
2022-08-03T04:42:26.871Z,70.42
2022-08-03T04:45:01.133Z,69.78
2022-08-03T04:47:33.342Z,70.56
2022-08-03T04:50:03.488Z,70.64
2022-08-03T04:52:33.152Z,69.79
2022-08-03T04:55:01.056Z,69.45
2022-08-03T04:57:29.478Z,69.03
2022-08-03T05:00:02.725Z,68.49
2022-08-03T05:02:32.434Z,68.25
2022-08-03T05:05:00.997Z,67.87
2022-08-03T05:07:34.117Z,67.69
2022-08-03T05:10:15.105Z,67.46
2022-08-03T05:12:46.421Z,66.93
2022-08-03T05:15:14.455Z,67.03
2022-08-03T05:17:42.859Z,66.67
2022-08-03T05:20:12.645Z,66.19
2022-08-03T05:22:40.574Z,66.33
2022-08-03T05:25:17.376Z,66.51
2022-08-03T05:27:48.806Z,66.47
2022-08-03T05:30:30.467Z,66.29
2022-08-03T05:33:01.678Z,66.00
2022-08-03T05:35:57.579Z,65.64
2022-08-03T05:38:28.291Z,65.75
2022-08-03T05:41:20.173Z,65.21
2022-08-03T05:43:47.751Z,64.01
2022-08-03T05:46:15.846Z,63.48
2022-08-03T05:48:44.849Z,63.68
2022-08-03T05:51:13.496Z,64.09
2022-08-03T05:53:41.935Z,63.53
2022-08-03T05:56:14.018Z,63.62
2022-08-03T05:58:45.015Z,63.64
2022-08-03T06:01:13.018Z,63.14
2022-08-03T06:03:44.312Z,63.86
2022-08-03T06:06:12.504Z,63.64
2022-08-03T06:08:41.347Z,63.04
2022-08-03T06:11:09.864Z,63.23
2022-08-03T06:13:39.721Z,62.73
2022-08-03T06:16:07.875Z,62.14
2022-08-03T06:18:40.415Z,62.62
2022-08-03T06:21:15.701Z,62.50
2022-08-03T06:23:54.764Z,62.00
2022-08-03T06:26:28.768Z,62.14
2022-08-03T06:28:58.287Z,62.46
2022-08-03T06:31:33.372Z,62.13
2022-08-03T06:34:34.446Z,61.76
2022-08-03T06:36:58.630Z,62.33
2022-08-03T06:39:29.954Z,62.87
2022-08-03T06:41:58.191Z,62.72
2022-08-03T06:44:27.907Z,62.49
2022-08-03T06:46:58.085Z,62.17
2022-08-03T06:49:27.422Z,61.79
2022-08-03T06:52:37.097Z,61.86
2022-08-03T06:54:44.785Z,61.63
2022-08-03T06:57:13.111Z,61.61
2022-08-03T07:00:08.224Z,61.73
2022-08-03T07:02:30.846Z,61.49
2022-08-03T07:04:59.255Z,60.58
2022-08-03T07:07:27.202Z,59.21
2022-08-03T07:09:58.287Z,59.67
2022-08-03T07:12:28.648Z,58.55
2022-08-03T07:15:02.565Z,58.46
2022-08-03T07:17:33.899Z,57.50
2022-08-03T07:20:03.682Z,58.35
2022-08-03T07:22:31.792Z,58.70
2022-08-03T07:25:00.034Z,58.90
2022-08-03T07:27:29.869Z,59.01
2022-08-03T07:30:00.414Z,59.54
2022-08-03T07:32:31.574Z,59.41
2022-08-03T07:35:01.165Z,58.76
2022-08-03T07:37:30.801Z,56.94
2022-08-03T07:39:59.518Z,58.08
2022-08-03T07:42:27.911Z,58.04
2022-08-03T07:44:56.102Z,57.23
2022-08-03T07:47:35.492Z,55.87
2022-08-03T07:50:08.550Z,55.25
2022-08-03T07:52:49.378Z,56.09
2022-08-03T07:55:17.952Z,54.43
2022-08-03T07:57:45.960Z,55.01
2022-08-03T08:00:17.400Z,55.53
2022-08-03T08:02:47.285Z,54.42
2022-08-03T08:05:15.395Z,53.73
2022-08-03T08:07:44.016Z,53.42
2022-08-03T08:10:19.417Z,52.65
2022-08-03T08:12:47.717Z,53.02
2022-08-03T08:15:15.821Z,52.30
2022-08-03T08:17:47.351Z,52.93
2022-08-03T08:20:27.084Z,50.42
2022-08-03T08:22:58.181Z,51.07
2022-08-03T08:25:29.413Z,50.44
2022-08-03T08:28:29.063Z,51.20
2022-08-03T08:30:46.297Z,49.21
2022-08-03T08:33:22.548Z,48.78
2022-08-03T08:35:52.993Z,48.30
2022-08-03T08:38:21.039Z,48.96
2022-08-03T08:40:50.536Z,48.21
2022-08-03T08:43:18.838Z,49.15
2022-08-03T08:45:48.438Z,49.40
2022-08-03T08:48:23.437Z,48.99
2022-08-03T08:50:54.528Z,47.75
2022-08-03T08:53:27.227Z,47.21
2022-08-03T08:56:00.533Z,47.86
2022-08-03T08:58:31.498Z,47.83
2022-08-03T09:01:00.294Z,46.98
2022-08-03T09:03:30.940Z,46.36
2022-08-03T09:06:00.867Z,45.21
2022-08-03T09:08:30.184Z,44.03
2022-08-03T09:10:58.247Z,43.88
2022-08-03T09:13:26.770Z,44.25
2022-08-03T09:16:16.618Z,43.72
2022-08-03T09:18:48.473Z,42.20
2022-08-03T09:21:32.059Z,42.38
2022-08-03T09:24:04.157Z,42.71
2022-08-03T09:26:34.505Z,41.67
2022-08-03T09:29:08.114Z,40.88
2022-08-03T09:31:43.108Z,40.83
2022-08-03T09:34:15.434Z,41.35
2022-08-03T09:36:45.755Z,41.25
2022-08-03T09:39:16.704Z,40.71
2022-08-03T09:41:46.953Z,39.50
2022-08-03T09:44:25.448Z,38.99
2022-08-03T09:46:56.716Z,38.34
2022-08-03T09:49:26.826Z,39.29
2022-08-03T09:52:32.330Z,38.21
2022-08-03T09:54:44.334Z,36.37
2022-08-03T09:57:23.348Z,35.63
2022-08-03T09:59:54.964Z,35.16
2022-08-03T10:02:41.012Z,34.30
2022-08-03T10:05:19.497Z,32.82
2022-08-03T10:07:49.643Z,30.82
2022-08-03T10:10:30.209Z,29.29
2022-08-03T10:13:01.145Z,28.06
2022-08-03T10:16:21.661Z,27.32
2022-08-03T10:18:18.042Z,25.21
2022-08-03T10:20:53.446Z,24.25
2022-08-03T10:23:22.554Z,23.88
2022-08-03T10:25:59.241Z,24.97
2022-08-03T10:28:34.885Z,24.58
2022-08-03T10:31:07.232Z,24.43
2022-08-03T10:33:51.490Z,24.43
2022-08-03T10:36:25.330Z,26.06
2022-08-03T10:38:54.125Z,26.03
2022-08-03T10:41:24.513Z,27.07
2022-08-03T10:43:57.889Z,28.11
2022-08-03T10:46:28.105Z,28.22
2022-08-03T10:48:57.585Z,28.65
2022-08-03T10:51:32.250Z,27.98
2022-08-03T10:54:01.839Z,28.32
2022-08-03T10:57:07.197Z,27.28
2022-08-03T11:00:03.474Z,28.52
2022-08-03T11:03:17.676Z,27.74
2022-08-03T11:05:46.869Z,27.43
2022-08-03T11:08:40.004Z,27.21
2022-08-03T11:11:28.367Z,26.79
2022-08-03T11:14:02.808Z,25.21
2022-08-03T11:16:32.436Z,24.51
2022-08-03T11:19:02.772Z,24.59
2022-08-03T11:21:54.399Z,23.71
2022-08-03T11:25:01.124Z,23.68
2022-08-03T11:27:33.850Z,23.17
2022-08-03T11:30:10.381Z,24.60
2022-08-03T11:33:00.034Z,25.25
2022-08-03T11:35:30.289Z,24.14
2022-08-03T11:38:08.897Z,24.15
2022-08-03T11:40:42.103Z,23.90
2022-08-03T11:43:12.205Z,24.07
2022-08-03T11:45:40.422Z,23.66
2022-08-03T11:48:18.339Z,23.96
2022-08-03T11:50:46.479Z,23.46
2022-08-03T11:53:19.411Z,24.10
2022-08-03T11:55:49.922Z,24.46
2022-08-03T11:59:16.587Z,24.66
2022-08-03T12:01:08.701Z,25.10
2022-08-03T12:03:37.317Z,24.79
2022-08-03T12:06:10.702Z,24.53
2022-08-03T12:08:38.668Z,24.77
2022-08-03T12:11:10.109Z,25.21
2022-08-03T12:14:43.925Z,24.28
2022-08-03T12:16:29.556Z,23.82
2022-08-03T12:18:59.698Z,24.48
2022-08-03T12:21:29.357Z,24.79
2022-08-03T12:24:01.800Z,25.22
2022-08-03T12:26:43.408Z,24.46
2022-08-03T12:29:18.241Z,24.99
2022-08-03T12:31:46.325Z,25.36
2022-08-03T12:34:14.749Z,25.71
2022-08-03T12:36:52.909Z,24.85
2022-08-03T12:39:25.274Z,25.12
2022-08-03T12:41:56.683Z,26.08
2022-08-03T12:44:31.881Z,25.94
2022-08-03T12:47:01.279Z,25.71
2022-08-03T12:49:30.497Z,25.73
2022-08-03T12:52:04.087Z,24.59
2022-08-03T12:54:36.133Z,24.40
2022-08-03T12:57:07.233Z,25.14
2022-08-03T12:59:40.713Z,23.55
2022-08-03T13:02:17.672Z,23.39
2022-08-03T13:04:47.552Z,23.30
2022-08-03T13:07:16.583Z,24.26
2022-08-03T13:09:47.667Z,24.34
2022-08-03T13:12:20.847Z,24.60
2022-08-03T13:14:51.852Z,25.75
2022-08-03T13:17:20.607Z,25.89
2022-08-03T13:19:50.291Z,26.72
2022-08-03T13:22:20.230Z,26.76
2022-08-03T13:24:49.985Z,27.07
2022-08-03T13:28:01.629Z,27.07
2022-08-03T13:30:09.625Z,25.18
2022-08-03T13:32:37.717Z,26.07
2022-08-03T13:35:06.863Z,26.41
2022-08-03T13:37:35.864Z,26.80
2022-08-03T13:40:05.841Z,26.76
2022-08-03T13:42:36.845Z,25.84
2022-08-03T13:45:06.786Z,26.28
2022-08-03T13:47:35.083Z,27.40
2022-08-03T13:50:03.450Z,27.22
2022-08-03T13:52:32.813Z,28.06
2022-08-03T13:55:01.589Z,27.91
2022-08-03T13:58:06.347Z,27.99
2022-08-03T14:00:26.477Z,27.63
2022-08-03T14:03:09.126Z,28.06
2022-08-03T14:05:41.918Z,28.18
2022-08-03T14:08:10.898Z,28.59
2022-08-03T14:10:40.532Z,28.04
2022-08-03T14:13:09.143Z,28.49
2022-08-03T14:15:38.945Z,28.94
2022-08-03T14:18:15.923Z,28.65
2022-08-03T14:20:56.891Z,29.83
2022-08-03T14:23:27.402Z,29.45
2022-08-03T14:25:55.430Z,29.35
2022-08-03T14:28:25.381Z,29.75
2022-08-03T14:30:57.041Z,29.10
2022-08-03T14:33:25.740Z,29.72
2022-08-03T14:35:54.255Z,29.62
2022-08-03T14:38:23.026Z,30.24
2022-08-03T14:40:51.952Z,29.25
2022-08-03T14:43:21.160Z,30.02
2022-08-03T14:45:52.357Z,29.57
2022-08-03T14:50:31.789Z,30.03
2022-08-03T14:51:12.299Z,29.79
2022-08-03T14:53:41.642Z,30.19
2022-08-03T14:56:10.677Z,30.20
2022-08-03T14:58:39.303Z,30.14
2022-08-03T15:02:03.055Z,30.41
2022-08-03T15:03:58.579Z,30.31
2022-08-03T15:06:26.915Z,30.42
2022-08-03T15:09:21.353Z,29.88
2022-08-03T15:11:43.778Z,29.98
2022-08-03T15:14:13.426Z,30.19
2022-08-03T15:16:42.721Z,30.23
2022-08-03T15:20:00.819Z,30.59
2022-08-03T15:22:00.990Z,31.32
2022-08-03T15:24:29.907Z,30.90
2022-08-03T15:26:57.810Z,31.64
2022-08-03T15:30:08.983Z,30.83
2022-08-03T15:32:14.931Z,31.67
2022-08-03T15:34:50.313Z,30.84
2022-08-03T15:37:19.910Z,30.57
2022-08-03T15:39:59.991Z,31.22
2022-08-03T15:42:31.010Z,30.94
2022-08-03T15:44:59.297Z,30.46
2022-08-03T15:47:27.705Z,30.33
2022-08-03T15:49:56.896Z,31.27
2022-08-03T15:52:25.382Z,31.89
2022-08-03T15:54:53.617Z,31.51
2022-08-03T15:57:22.148Z,30.74
2022-08-03T15:59:50.667Z,31.01
2022-08-03T16:02:18.680Z,31.74
2022-08-03T16:04:46.642Z,32.01
2022-08-03T16:07:16.280Z,32.42
2022-08-03T16:09:44.523Z,32.73
2022-08-03T16:12:16.416Z,31.38
2022-08-03T16:14:53.818Z,32.96
2022-08-03T16:17:23.549Z,33.70
2022-08-03T16:19:54.837Z,33.54
2022-08-03T16:22:28.305Z,33.55
2022-08-03T16:24:57.682Z,34.03
2022-08-03T16:27:56.773Z,33.88
2022-08-03T16:30:16.744Z,33.88
2022-08-03T16:32:45.822Z,32.53
2022-08-03T16:35:19.178Z,33.41
2022-08-03T16:37:56.891Z,33.54
2022-08-03T16:40:25.991Z,33.86
2022-08-03T16:42:54.534Z,34.28
2022-08-03T16:45:22.933Z,34.40
2022-08-03T16:48:01.521Z,34.58
2022-08-03T16:50:34.440Z,33.16
2022-08-03T16:53:09.028Z,34.13
2022-08-03T16:55:48.461Z,34.74
2022-08-03T16:58:34.267Z,34.68
2022-08-03T17:01:22.444Z,34.95
2022-08-03T17:04:02.700Z,33.44
2022-08-03T17:06:35.165Z,33.28
2022-08-03T17:09:08.344Z,33.42
2022-08-03T17:11:43.095Z,33.52
2022-08-03T17:14:14.663Z,33.76
2022-08-03T17:16:52.538Z,33.99
2022-08-03T17:19:24.199Z,35.76
2022-08-03T17:21:58.732Z,36.26
2022-08-03T17:24:35.002Z,37.46
2022-08-03T17:27:08.905Z,38.68
2022-08-03T17:29:45.100Z,39.49
2022-08-03T17:32:18.398Z,40.09
2022-08-03T17:34:50.711Z,37.96
2022-08-03T17:37:50.638Z,39.51
2022-08-03T17:40:17.361Z,37.88
2022-08-03T17:42:50.825Z,39.40
2022-08-03T17:45:20.800Z,41.13
2022-08-03T17:47:57.719Z,39.26
2022-08-03T17:50:35.368Z,40.25
2022-08-03T17:53:15.300Z,38.77
2022-08-03T17:56:04.927Z,39.05
2022-08-03T17:58:53.524Z,40.74
2022-08-03T18:02:00.127Z,40.13
2022-08-03T18:04:41.295Z,41.94
2022-08-03T18:07:12.542Z,42.84
2022-08-03T18:10:04.046Z,42.88
2022-08-03T18:12:46.008Z,43.31
2022-08-03T18:15:27.768Z,43.66
2022-08-03T18:18:03.089Z,44.37
2022-08-03T18:20:42.035Z,43.86
2022-08-03T18:23:24.692Z,44.21
2022-08-03T18:25:59.214Z,44.88
2022-08-03T18:28:30.234Z,44.83
2022-08-03T18:31:04.161Z,45.12
2022-08-03T18:34:17.260Z,45.20
2022-08-03T18:36:29.923Z,45.71
2022-08-03T18:39:00.142Z,46.14
2022-08-03T18:41:32.619Z,46.51
2022-08-03T18:44:08.349Z,46.54
2022-08-03T18:46:48.053Z,47.21
2022-08-03T18:49:29.854Z,46.61
2022-08-03T18:52:12.419Z,47.27
2022-08-03T18:55:02.572Z,46.85
2022-08-03T18:57:46.382Z,46.80
2022-08-03T19:03:12.457Z,47.55
2022-08-03T19:06:02.448Z,47.40
2022-08-03T19:08:48.668Z,47.06
2022-08-03T19:11:28.238Z,46.61
2022-08-03T19:14:00.308Z,48.03
2022-08-03T19:16:39.376Z,48.48
2022-08-03T19:19:14.408Z,48.00
2022-08-03T19:21:44.650Z,48.43
2022-08-03T19:25:12.224Z,48.73
2022-08-03T19:27:40.630Z,48.48
2022-08-03T19:30:32.324Z,48.80
2022-08-03T19:33:01.640Z,48.99
2022-08-03T19:35:51.655Z,48.74
2022-08-03T19:38:28.567Z,48.13
2022-08-03T19:41:05.722Z,48.32
2022-08-03T19:43:53.248Z,48.04
2022-08-03T19:46:30.542Z,48.34
2022-08-03T19:49:04.128Z,48.63
2022-08-03T19:51:58.487Z,48.38
2022-08-03T19:54:39.594Z,49.04
2022-08-03T19:57:25.498Z,49.00
2022-08-03T19:59:57.039Z,49.74
2022-08-03T20:02:28.045Z,49.36
2022-08-03T20:04:59.906Z,50.06
2022-08-03T20:07:30.928Z,49.64
2022-08-03T20:10:01.374Z,49.28
2022-08-03T20:12:39.116Z,48.73
2022-08-03T20:15:10.512Z,49.07
2022-08-03T20:17:57.160Z,49.61
2022-08-03T20:20:30.208Z,49.76
2022-08-03T20:22:59.895Z,49.17
2022-08-03T20:25:37.913Z,49.85
2022-08-03T20:28:15.235Z,50.18
2022-08-03T20:30:47.567Z,50.30
2022-08-03T20:33:18.331Z,50.66
2022-08-03T20:35:50.045Z,49.60
2022-08-03T20:38:19.471Z,50.44
2022-08-03T20:40:49.039Z,50.34
2022-08-03T20:43:19.937Z,50.70
2022-08-03T20:46:00.266Z,50.56
2022-08-03T20:48:37.263Z,50.59
2022-08-03T20:51:15.662Z,50.58
2022-08-03T20:53:59.744Z,51.06
2022-08-03T20:56:33.738Z,51.13
2022-08-03T20:59:05.673Z,50.70
2022-08-03T21:01:35.996Z,50.90
2022-08-03T21:04:07.013Z,50.65
2022-08-03T21:06:42.874Z,51.11
2022-08-03T21:09:19.624Z,51.16
2022-08-03T21:11:51.725Z,50.90
2022-08-03T21:13:00.964Z,47.38
2022-08-03T21:14:26.871Z,51.50
2022-08-03T21:16:56.776Z,51.47
2022-08-03T21:19:27.207Z,51.45
2022-08-03T21:21:56.327Z,51.55
2022-08-03T21:24:26.779Z,51.29
2022-08-03T21:26:55.721Z,51.47
2022-08-03T21:29:25.625Z,50.97
2022-08-03T21:31:54.273Z,51.61
2022-08-03T21:34:25.168Z,51.07
2022-08-03T21:36:53.390Z,51.20
2022-08-03T21:39:21.442Z,51.38
2022-08-03T21:41:49.463Z,51.32
2022-08-03T21:44:29.090Z,51.54
2022-08-03T21:47:00.900Z,51.55
2022-08-03T21:50:05.806Z,52.10
2022-08-03T21:52:22.538Z,51.66
2022-08-03T21:54:52.290Z,52.29
2022-08-03T21:57:23.042Z,52.49
2022-08-03T21:59:55.270Z,52.32
2022-08-03T22:02:30.058Z,52.55
2022-08-03T22:05:00.135Z,52.29
2022-08-03T22:07:31.186Z,52.10
2022-08-03T22:10:01.473Z,52.34
2022-08-03T22:12:31.587Z,52.05
2022-08-03T22:15:02.237Z,51.68
2022-08-03T22:17:55.709Z,51.84
2022-08-03T22:20:22.315Z,51.81
2022-08-03T22:22:56.560Z,52.08
2022-08-03T22:25:29.384Z,52.20
2022-08-03T22:27:59.425Z,51.89
2022-08-03T22:30:28.165Z,52.22
2022-08-03T22:32:58.972Z,51.51
2022-08-03T22:35:28.280Z,52.78
2022-08-03T22:37:58.609Z,53.27
2022-08-03T22:40:28.006Z,53.74
2022-08-03T22:42:56.262Z,54.56
2022-08-03T22:46:07.498Z,54.59
2022-08-03T22:48:17.396Z,55.49
2022-08-03T22:50:45.859Z,55.53
2022-08-03T22:53:17.957Z,55.78
2022-08-03T22:55:46.714Z,55.37
2022-08-03T22:58:16.562Z,55.69
2022-08-03T23:00:54.079Z,55.10
2022-08-03T23:04:01.186Z,54.56
2022-08-03T23:06:17.549Z,55.69
2022-08-03T23:08:47.545Z,56.10
2022-08-03T23:11:18.563Z,55.36
2022-08-03T23:13:48.087Z,54.79
2022-08-03T23:16:28.954Z,54.29
2022-08-03T23:18:59.527Z,54.98
2022-08-03T23:21:53.416Z,55.02
2022-08-03T23:24:27.499Z,54.98
2022-08-03T23:26:58.480Z,54.78
2022-08-03T23:29:29.947Z,55.09
2022-08-03T23:31:59.501Z,54.03
2022-08-03T23:34:46.897Z,53.21
2022-08-03T23:37:15.908Z,52.87
2022-08-03T23:39:46.521Z,53.12
2022-08-03T23:42:16.222Z,53.32
2022-08-03T23:44:45.907Z,53.39
2022-08-03T23:47:14.317Z,53.51
2022-08-03T23:49:43.972Z,53.98
2022-08-03T23:52:21.824Z,54.32
2022-08-03T23:55:04.366Z,54.31
2022-08-03T23:57:43.705Z,54.87
